createdAt,value
2023-04-12T00:02:08.832Z,100565.34
2023-04-12T00:04:36.175Z,100555.44
2023-04-12T00:07:03.144Z,100548.72
2023-04-12T00:09:30.762Z,100549.31
2023-04-12T00:11:58.927Z,100545.72
2023-04-12T00:14:26.456Z,100537.44
2023-04-12T00:16:53.097Z,100529.25
2023-04-12T00:19:27.351Z,100518.38
2023-04-12T00:21:53.874Z,100516.25
2023-04-12T00:24:20.414Z,100515.38
2023-04-12T00:26:46.834Z,100503.25
2023-04-12T00:29:13.213Z,100496.53
2023-04-12T00:31:40.731Z,100492.63
2023-04-12T00:34:07.192Z,100489.47
2023-04-12T00:36:33.632Z,100488.22
2023-04-12T00:39:00.130Z,100472.78
2023-04-12T00:41:27.194Z,100476.16
2023-04-12T00:43:54.073Z,100466.38
2023-04-12T00:46:21.080Z,100457.97
2023-04-12T00:48:48.394Z,100450.56
2023-04-12T00:51:15.484Z,100438.56
2023-04-12T00:53:42.830Z,100431.16
2023-04-12T00:56:12.182Z,100420.06
2023-04-12T00:58:38.613Z,100419.84
2023-04-12T01:01:05.737Z,100402.44
2023-04-12T01:03:32.917Z,100393.16
2023-04-12T01:06:13.977Z,100384.28
2023-04-12T01:08:53.856Z,100380.81
2023-04-12T01:11:45.642Z,100393.94
2023-04-12T01:14:21.521Z,100376.19
2023-04-12T01:16:51.324Z,100372.84
2023-04-12T01:19:53.756Z,100352.88
2023-04-12T01:22:42.694Z,100344.44
2023-04-12T01:25:24.327Z,100337.50
2023-04-12T01:27:54.962Z,100332.88
2023-04-12T01:30:22.076Z,100331.00
2023-04-12T01:32:51.319Z,100315.94
2023-04-12T01:35:21.292Z,100303.59
2023-04-12T01:37:48.326Z,100305.84
2023-04-12T01:40:15.416Z,100293.19
2023-04-12T01:42:41.835Z,100289.00
2023-04-12T01:45:08.850Z,100285.56
2023-04-12T01:47:35.884Z,100281.28
2023-04-12T01:50:27.274Z,100274.34
2023-04-12T01:53:27.922Z,100257.03
2023-04-12T01:55:59.804Z,100258.19
2023-04-12T01:58:27.569Z,100249.75
2023-04-12T02:00:55.812Z,100242.47
2023-04-12T02:03:23.517Z,100247.50
2023-04-12T02:05:52.200Z,100229.78
2023-04-12T02:08:18.652Z,100231.34
2023-04-12T02:10:45.280Z,100220.13
2023-04-12T02:13:12.172Z,100213.19
2023-04-12T02:15:40.508Z,100201.28
2023-04-12T02:18:07.358Z,100184.00
2023-04-12T02:20:35.815Z,100178.19
2023-04-12T02:23:21.747Z,100188.63
2023-04-12T02:25:48.356Z,100175.16
2023-04-12T02:28:15.043Z,100160.88
2023-04-12T02:31:00.230Z,100153.59
2023-04-12T02:33:28.251Z,100142.84
2023-04-12T02:35:56.379Z,100137.44
2023-04-12T02:38:23.453Z,100146.66
2023-04-12T02:40:49.904Z,100129.28
2023-04-12T02:43:16.544Z,100116.16
2023-04-12T02:45:43.236Z,100113.13
2023-04-12T02:48:09.768Z,100115.81
2023-04-12T02:50:37.467Z,100102.72
2023-04-12T02:53:03.972Z,100093.81
2023-04-12T02:55:31.713Z,100091.94
2023-04-12T02:57:58.505Z,100079.25
2023-04-12T03:00:25.354Z,100075.78
2023-04-12T03:02:52.357Z,100070.41
2023-04-12T03:05:19.498Z,100066.91
2023-04-12T03:07:46.469Z,100057.72
2023-04-12T03:10:13.290Z,100041.91
2023-04-12T03:12:40.135Z,100043.81
2023-04-12T03:15:07.283Z,100044.16
2023-04-12T03:17:33.748Z,100028.34
2023-04-12T03:20:07.784Z,100030.28
2023-04-12T03:22:34.320Z,100027.16
2023-04-12T03:25:01.470Z,100025.59
2023-04-12T03:27:28.073Z,100012.47
2023-04-12T03:29:54.536Z,100011.28
2023-04-12T03:32:21.299Z,100010.13
2023-04-12T03:34:47.829Z,100008.13
2023-04-12T03:37:14.437Z,100004.66
2023-04-12T03:39:49.156Z,100004.25
2023-04-12T03:42:29.367Z,100001.88
2023-04-12T03:44:59.241Z,100003.03
2023-04-12T03:47:25.879Z,99994.50
2023-04-12T03:52:34.357Z,99985.59
2023-04-12T03:55:07.489Z,99967.88
2023-04-12T03:57:34.640Z,99956.66
2023-04-12T04:00:01.364Z,99955.91
2023-04-12T04:02:28.261Z,99962.06
2023-04-12T04:04:55.118Z,99945.47
2023-04-12T04:07:22.472Z,99937.41
2023-04-12T04:09:50.219Z,99936.28
2023-04-12T04:12:17.011Z,99931.69
2023-04-12T04:14:43.981Z,99919.34
2023-04-12T04:17:11.332Z,99913.19
2023-04-12T04:19:38.380Z,99912.84
2023-04-12T04:22:08.919Z,99908.22
2023-04-12T04:24:39.014Z,99912.06
2023-04-12T04:27:06.451Z,99915.88
2023-04-12T04:29:33.782Z,99902.09
2023-04-12T04:32:00.530Z,99885.59
2023-04-12T04:34:27.092Z,99896.78
2023-04-12T04:36:53.581Z,99899.47
2023-04-12T04:39:20.253Z,99892.16
2023-04-12T04:41:47.026Z,99894.84
2023-04-12T04:44:14.512Z,99888.34
2023-04-12T04:46:41.116Z,99887.56
2023-04-12T04:49:07.639Z,99884.88
2023-04-12T04:51:34.092Z,99870.28
2023-04-12T04:54:02.779Z,99883.75
2023-04-12T04:56:34.443Z,99896.06
2023-04-12T04:59:04.404Z,99886.44
2023-04-12T05:01:36.734Z,99883.75
2023-04-12T05:04:04.381Z,99879.50
2023-04-12T05:06:31.305Z,99880.69
2023-04-12T05:08:58.141Z,99887.19
2023-04-12T05:11:24.833Z,99878.00
2023-04-12T05:13:51.438Z,99881.47
2023-04-12T05:16:18.101Z,99868.47
2023-04-12T05:18:45.036Z,99864.97
2023-04-12T05:21:11.713Z,99870.34
2023-04-12T05:23:43.625Z,99870.00
2023-04-12T05:26:10.537Z,99860.00
2023-04-12T05:28:46.551Z,99866.97
2023-04-12T05:31:13.064Z,99863.94
2023-04-12T05:33:39.765Z,99858.19
2023-04-12T05:36:06.625Z,99854.34
2023-04-12T05:38:33.173Z,99857.03
2023-04-12T05:40:59.704Z,99847.84
2023-04-12T05:43:26.110Z,99847.06
2023-04-12T05:45:52.751Z,99849.84
2023-04-12T05:48:19.516Z,99849.50
2023-04-12T05:50:52.874Z,99842.94
2023-04-12T05:53:19.539Z,99848.75
2023-04-12T05:55:49.040Z,99856.06
2023-04-12T05:58:15.697Z,99854.94
2023-04-12T06:00:42.416Z,99869.59
2023-04-12T06:03:10.468Z,99866.19
2023-04-12T06:05:37.618Z,99866.97
2023-04-12T06:08:05.519Z,99868.13
2023-04-12T06:10:32.402Z,99874.69
2023-04-12T06:13:00.721Z,99868.19
2023-04-12T06:15:27.293Z,99868.25
2023-04-12T06:17:53.916Z,99869.81
2023-04-12T06:20:24.035Z,99855.63
2023-04-12T06:22:50.728Z,99854.16
2023-04-12T06:25:17.179Z,99854.59
2023-04-12T06:27:44.090Z,99850.72
2023-04-12T06:30:10.897Z,99852.31
2023-04-12T06:32:38.712Z,99851.19
2023-04-12T06:35:05.950Z,99853.13
2023-04-12T06:37:32.553Z,99852.78
2023-04-12T06:39:59.193Z,99850.16
2023-04-12T06:42:25.705Z,99857.97
2023-04-12T06:44:52.254Z,99856.13
2023-04-12T06:47:18.686Z,99857.31
2023-04-12T06:49:45.308Z,99851.16
2023-04-12T06:52:25.551Z,99845.75
2023-04-12T06:54:52.599Z,99843.56
2023-04-12T06:57:19.102Z,99845.94
2023-04-12T06:59:57.615Z,99838.72
2023-04-12T07:05:16.842Z,99842.72
2023-04-12T07:07:45.143Z,99847.75
2023-04-12T07:10:13.662Z,99852.38
2023-04-12T07:12:40.355Z,99850.09
2023-04-12T07:15:07.291Z,99852.91
2023-04-12T07:17:33.846Z,99838.72
2023-04-12T07:20:00.269Z,99840.75
2023-04-12T07:22:26.770Z,99837.41
2023-04-12T07:24:53.353Z,99843.63
2023-04-12T07:27:19.920Z,99844.03
2023-04-12T07:29:46.658Z,99836.38
2023-04-12T07:32:13.349Z,99845.34
2023-04-12T07:34:40.938Z,99841.91
2023-04-12T07:37:10.531Z,99841.97
2023-04-12T07:39:39.338Z,99844.41
2023-04-12T07:42:11.851Z,99838.66
2023-04-12T07:44:44.276Z,99837.44
2023-04-12T07:47:10.837Z,99836.28
2023-04-12T07:49:46.440Z,99837.88
2023-04-12T07:52:25.311Z,99833.38
2023-04-12T07:55:04.340Z,99835.09
2023-04-12T07:57:33.630Z,99833.66
2023-04-12T08:00:00.775Z,99834.88
2023-04-12T08:02:27.587Z,99837.25
2023-04-12T08:04:56.364Z,99840.00
2023-04-12T08:10:04.629Z,99840.88
2023-04-12T08:12:37.017Z,99837.50
2023-04-12T08:15:13.718Z,99833.06
2023-04-12T08:17:44.180Z,99827.56
2023-04-12T08:20:23.258Z,99827.88
2023-04-12T08:23:04.473Z,99824.19
2023-04-12T08:25:31.630Z,99815.31
2023-04-12T08:27:58.023Z,99807.34
2023-04-12T08:30:26.855Z,99808.09
2023-04-12T08:32:59.306Z,99805.03
2023-04-12T08:35:35.394Z,99805.41
2023-04-12T08:38:07.471Z,99808.81
2023-04-12T08:40:38.543Z,99795.22
2023-04-12T08:43:08.427Z,99789.38
2023-04-12T08:45:39.255Z,99806.09
2023-04-12T08:48:06.398Z,99813.84
2023-04-12T08:50:33.454Z,99828.19
2023-04-12T08:55:53.945Z,99824.28
2023-04-12T08:58:21.419Z,99820.38
2023-04-12T09:00:48.428Z,99829.31
2023-04-12T09:03:15.152Z,99828.94
2023-04-12T09:05:41.829Z,99818.94
2023-04-12T09:08:08.435Z,99822.44
2023-04-12T09:10:37.179Z,99819.34
2023-04-12T09:13:05.088Z,99813.91
2023-04-12T09:15:31.902Z,99812.75
2023-04-12T09:18:07.612Z,99816.97
2023-04-12T09:20:34.368Z,99818.34
2023-04-12T09:23:31.478Z,99810.44
2023-04-12T09:26:08.583Z,99799.41
2023-04-12T09:28:44.706Z,99802.63
2023-04-12T09:31:17.336Z,99794.22
2023-04-12T09:33:44.257Z,99801.91
2023-04-12T09:36:14.471Z,99799.03
2023-04-12T09:38:43.134Z,99797.16
2023-04-12T09:41:20.755Z,99791.63
2023-04-12T09:43:52.880Z,99791.56
2023-04-12T09:46:19.916Z,99805.59
2023-04-12T09:48:51.746Z,99810.34
2023-04-12T09:51:32.996Z,99796.16
2023-04-12T09:54:03.881Z,99806.75
2023-04-12T09:56:33.001Z,99806.81
2023-04-12T09:59:03.440Z,99794.03
2023-04-12T10:01:35.995Z,99799.50
2023-04-12T10:04:11.997Z,99801.41
2023-04-12T10:06:41.642Z,99795.56
2023-04-12T10:09:13.447Z,99806.41
2023-04-12T10:11:41.956Z,99797.81
2023-04-12T10:14:09.981Z,99795.72
2023-04-12T10:16:37.423Z,99789.78
2023-04-12T10:19:04.499Z,99782.63
2023-04-12T10:21:31.577Z,99782.50
2023-04-12T10:23:58.743Z,99783.97
2023-04-12T10:26:25.929Z,99779.00
2023-04-12T10:29:31.354Z,99776.81
2023-04-12T10:32:18.506Z,99773.53
2023-04-12T10:34:45.030Z,99775.84
2023-04-12T10:37:12.088Z,99775.09
2023-04-12T10:39:44.175Z,99781.28
2023-04-12T10:42:16.013Z,99775.00
2023-04-12T10:44:42.863Z,99784.06
2023-04-12T10:47:10.145Z,99777.59
2023-04-12T10:49:37.823Z,99784.69
2023-04-12T10:52:12.642Z,99792.53
2023-04-12T10:54:39.438Z,99788.31
2023-04-12T10:57:07.204Z,99787.97
2023-04-12T10:59:56.590Z,99794.09
2023-04-12T11:02:23.532Z,99795.25
2023-04-12T11:05:11.172Z,99796.34
2023-04-12T11:07:43.002Z,99792.53
2023-04-12T11:10:15.102Z,99793.72
2023-04-12T11:12:42.816Z,99786.75
2023-04-12T11:15:19.936Z,99790.19
2023-04-12T11:17:58.018Z,99793.88
2023-04-12T11:20:27.623Z,99792.34
2023-04-12T11:22:55.237Z,99796.50
2023-04-12T11:25:21.714Z,99804.25
2023-04-12T11:27:53.553Z,99793.63
2023-04-12T11:30:20.748Z,99789.59
2023-04-12T11:35:36.793Z,99798.34
2023-04-12T11:38:04.037Z,99798.31
2023-04-12T11:40:31.532Z,99791.78
2023-04-12T11:42:58.288Z,99796.75
2023-04-12T11:45:25.043Z,99803.63
2023-04-12T11:47:52.180Z,99801.03
2023-04-12T11:50:33.607Z,99807.63
2023-04-12T11:53:13.805Z,99800.91
2023-04-12T11:55:41.700Z,99803.03
2023-04-12T11:58:08.689Z,99815.56
2023-04-12T12:00:35.472Z,99804.56
2023-04-12T12:03:07.215Z,99805.91
2023-04-12T12:05:39.194Z,99807.28
2023-04-12T12:08:07.712Z,99820.00
2023-04-12T12:10:55.499Z,99799.44
2023-04-12T12:13:26.195Z,99808.41
2023-04-12T12:15:53.444Z,99807.63
2023-04-12T12:18:25.539Z,99801.53
2023-04-12T12:23:33.588Z,99805.50
2023-04-12T12:26:14.825Z,99801.97
2023-04-12T12:28:53.256Z,99810.66
2023-04-12T12:31:25.133Z,99810.72
2023-04-12T12:33:59.708Z,99815.00
2023-04-12T12:36:41.171Z,99805.09
2023-04-12T12:39:12.974Z,99821.00
2023-04-12T12:41:41.043Z,99808.47
2023-04-12T12:44:08.329Z,99806.56
2023-04-12T12:49:15.760Z,99813.31
2023-04-12T12:51:43.020Z,99832.44
2023-04-12T12:54:12.522Z,99840.53
2023-04-12T12:56:42.150Z,99838.16
2023-04-12T12:59:08.778Z,99832.75
2023-04-12T13:01:35.468Z,99843.38
2023-04-12T13:04:02.339Z,99841.94
2023-04-12T13:06:48.131Z,99827.59
2023-04-12T13:09:14.636Z,99832.94
2023-04-12T13:11:41.353Z,99831.78
2023-04-12T13:14:10.691Z,99839.16
2023-04-12T13:16:48.413Z,99836.47
2023-04-12T13:19:16.315Z,99829.53
2023-04-12T13:21:42.826Z,99832.75
2023-04-12T13:24:09.517Z,99836.78
2023-04-12T13:26:35.997Z,99837.03
2023-04-12T13:29:03.287Z,99838.25
2023-04-12T13:31:29.855Z,99834.41
2023-04-12T13:34:10.526Z,99838.69
2023-04-12T13:36:37.036Z,99829.84
2023-04-12T13:39:03.832Z,99829.38
2023-04-12T13:41:32.790Z,99826.19
2023-04-12T13:43:59.392Z,99824.78
2023-04-12T13:46:26.070Z,99824.75
2023-04-12T13:48:52.526Z,99829.03
2023-04-12T13:51:19.097Z,99840.66
2023-04-12T13:53:45.773Z,99834.13
2023-04-12T13:56:12.297Z,99820.81
2023-04-12T13:58:40.320Z,99819.88
2023-04-12T14:01:08.607Z,99823.34
2023-04-12T14:03:35.795Z,99818.69
2023-04-12T14:06:02.873Z,99817.94
2023-04-12T14:08:29.757Z,99816.41
2023-04-12T14:10:56.359Z,99820.00
2023-04-12T14:13:23.398Z,99825.22
2023-04-12T14:15:51.622Z,99834.38
2023-04-12T14:18:19.174Z,99825.50
2023-04-12T14:20:49.182Z,99847.88
2023-04-12T14:23:17.723Z,99842.63
2023-04-12T14:26:01.110Z,99838.44
2023-04-12T14:28:30.976Z,99836.94
2023-04-12T14:30:58.065Z,99842.81
2023-04-12T14:33:34.040Z,99840.22
2023-04-12T14:36:09.985Z,99830.56
2023-04-12T14:38:36.571Z,99816.19
2023-04-12T14:41:07.730Z,99823.13
2023-04-12T14:43:34.359Z,99821.19
2023-04-12T14:46:12.129Z,99803.34
2023-04-12T14:48:38.905Z,99803.22
2023-04-12T14:51:05.696Z,99809.16
2023-04-12T14:53:32.146Z,99799.28
2023-04-12T14:56:00.595Z,99787.91
2023-04-12T14:58:29.816Z,99807.19
2023-04-12T15:00:58.110Z,99798.09
2023-04-12T15:06:12.166Z,99807.19
2023-04-12T15:08:42.925Z,99817.28
2023-04-12T15:11:10.452Z,99820.69
2023-04-12T15:13:39.895Z,99828.44
2023-04-12T15:16:12.410Z,99823.81
2023-04-12T15:18:39.476Z,99824.28
2023-04-12T15:21:08.390Z,99843.75
2023-04-12T15:23:43.682Z,99853.78
2023-04-12T15:26:10.748Z,99856.81
2023-04-12T15:28:37.556Z,99871.56
2023-04-12T15:31:04.823Z,99856.78
2023-04-12T15:33:34.337Z,99857.56
2023-04-12T15:36:02.007Z,99856.38
2023-04-12T15:38:29.865Z,99852.84
2023-04-12T15:41:09.207Z,99852.91
2023-04-12T15:43:35.824Z,99868.06
2023-04-12T15:46:02.725Z,99867.66
2023-04-12T15:48:29.293Z,99867.66
2023-04-12T15:50:59.675Z,99868.53
2023-04-12T15:53:29.825Z,99861.91
2023-04-12T15:56:04.487Z,99858.38
2023-04-12T15:58:31.177Z,99862.66
2023-04-12T16:00:58.024Z,99862.66
2023-04-12T16:03:26.122Z,99863.81
2023-04-12T16:05:53.697Z,99864.56
2023-04-12T16:08:22.289Z,99860.34
2023-04-12T16:10:50.253Z,99858.41
2023-04-12T16:13:16.921Z,99863.44
2023-04-12T16:15:43.448Z,99853.38
2023-04-12T16:18:10.356Z,99851.44
2023-04-12T16:20:37.563Z,99855.66
2023-04-12T16:23:05.172Z,99845.53
2023-04-12T16:25:32.340Z,99846.41
2023-04-12T16:28:02.392Z,99845.25
2023-04-12T16:30:32.445Z,99836.75
2023-04-12T16:32:59.507Z,99835.22
2023-04-12T16:35:26.451Z,99829.03
2023-04-12T16:37:53.005Z,99836.00
2023-04-12T16:40:20.643Z,99832.16
2023-04-12T16:42:47.152Z,99842.19
2023-04-12T16:45:16.641Z,99834.03
2023-04-12T16:47:49.321Z,99827.88
2023-04-12T16:50:25.735Z,99815.41
2023-04-12T16:53:01.640Z,99819.25
2023-04-12T16:55:30.018Z,99819.59
2023-04-12T16:57:58.196Z,99807.50
2023-04-12T17:00:27.021Z,99808.97
2023-04-12T17:02:54.280Z,99810.91
2023-04-12T17:05:22.418Z,99823.97
2023-04-12T17:07:54.220Z,99825.75
2023-04-12T17:10:22.864Z,99823.75
2023-04-12T17:12:52.181Z,99826.38
2023-04-12T17:15:21.075Z,99814.59
2023-04-12T17:17:50.127Z,99816.03
2023-04-12T17:20:18.794Z,99816.75
2023-04-12T17:22:46.250Z,99828.28
2023-04-12T17:25:13.386Z,99817.44
2023-04-12T17:27:40.979Z,99830.94
2023-04-12T17:30:11.396Z,99827.50
2023-04-12T17:32:39.069Z,99830.97
2023-04-12T17:35:06.965Z,99832.00
2023-04-12T17:37:34.549Z,99840.75
2023-04-12T17:40:01.692Z,99835.19
2023-04-12T17:45:12.637Z,99823.19
2023-04-12T17:47:40.562Z,99822.72
2023-04-12T17:50:10.456Z,99820.69
2023-04-12T17:52:37.120Z,99825.25
2023-04-12T17:55:05.356Z,99824.72
2023-04-12T17:57:32.168Z,99816.16
2023-04-12T17:59:58.891Z,99806.72
2023-04-12T18:02:25.808Z,99806.97
2023-04-12T18:04:52.476Z,99799.47
2023-04-12T18:07:18.941Z,99798.19
2023-04-12T18:09:45.884Z,99799.63
2023-04-12T18:12:13.148Z,99803.00
2023-04-12T18:14:42.063Z,99802.91
2023-04-12T18:17:08.485Z,99816.66
2023-04-12T18:19:34.980Z,99817.03
2023-04-12T18:22:01.858Z,99813.09
2023-04-12T18:24:29.395Z,99815.28
2023-04-12T18:26:57.216Z,99815.28
2023-04-12T18:29:25.729Z,99811.78
2023-04-12T18:31:52.351Z,99804.34
2023-04-12T18:34:19.177Z,99813.09
2023-04-12T18:36:54.505Z,99814.19
2023-04-12T18:39:26.958Z,99816.38
2023-04-12T18:42:18.269Z,99807.50
2023-04-12T18:44:44.794Z,99805.13
2023-04-12T18:47:11.763Z,99807.03
2023-04-12T18:49:38.501Z,99806.19
2023-04-12T18:52:04.893Z,99796.44
2023-04-12T18:54:31.444Z,99801.84
2023-04-12T18:57:00.805Z,99799.03
2023-04-12T18:59:27.422Z,99811.69
2023-04-12T19:01:53.936Z,99811.56
2023-04-12T19:04:20.784Z,99799.50
2023-04-12T19:06:47.438Z,99806.41
2023-04-12T19:09:14.058Z,99804.34
2023-04-12T19:11:40.655Z,99808.88
2023-04-12T19:14:08.332Z,99805.25
2023-04-12T19:16:35.412Z,99800.97
2023-04-12T19:19:02.653Z,99801.66
2023-04-12T19:21:29.487Z,99800.81
2023-04-12T19:23:56.465Z,99795.78
2023-04-12T19:26:23.411Z,99800.66
2023-04-12T19:28:55.532Z,99789.81
2023-04-12T19:31:23.761Z,99792.53
2023-04-12T19:33:50.537Z,99789.81
2023-04-12T19:36:17.173Z,99785.88
2023-04-12T19:38:44.141Z,99781.19
2023-04-12T19:41:10.770Z,99782.66
2023-04-12T19:43:37.239Z,99781.41
2023-04-12T19:46:03.959Z,99780.91
2023-04-12T19:48:31.175Z,99778.13
2023-04-12T19:50:58.110Z,99769.97
2023-04-12T19:53:24.555Z,99763.75
2023-04-12T19:55:52.536Z,99746.84
2023-04-12T19:58:19.251Z,99750.66
2023-04-12T20:00:51.686Z,99737.91
2023-04-12T20:03:21.946Z,99736.38
2023-04-12T20:05:59.044Z,99725.53
2023-04-12T20:08:25.920Z,99726.66
2023-04-12T20:10:52.911Z,99727.00
2023-04-12T20:13:19.376Z,99724.25
2023-04-12T20:15:45.951Z,99723.41
2023-04-12T20:18:13.567Z,99718.72
2023-04-12T20:20:44.078Z,99719.41
2023-04-12T20:23:12.539Z,99715.97
2023-04-12T20:25:41.680Z,99714.38
2023-04-12T20:28:09.255Z,99702.53
2023-04-12T20:30:39.419Z,99694.81
2023-04-12T20:33:07.161Z,99689.44
2023-04-12T20:35:33.754Z,99697.13
2023-04-12T20:38:00.427Z,99693.75
2023-04-12T20:40:27.955Z,99694.09
2023-04-12T20:42:54.440Z,99684.13
2023-04-12T20:45:22.100Z,99685.25
2023-04-12T20:50:30.438Z,99669.91
2023-04-12T20:52:57.946Z,99656.13
2023-04-12T20:55:33.888Z,99661.50
2023-04-12T20:58:01.191Z,99655.03
2023-04-12T21:00:29.606Z,99652.78
2023-04-12T21:02:56.791Z,99648.59
2023-04-12T21:05:23.440Z,99642.00
2023-04-12T21:07:50.246Z,99635.09
2023-04-12T21:10:16.960Z,99622.13
2023-04-12T21:12:44.970Z,99629.09
2023-04-12T21:15:12.175Z,99615.72
2023-04-12T21:17:39.252Z,99613.09
2023-04-12T21:20:13.527Z,99607.00
2023-04-12T21:22:42.949Z,99595.38
2023-04-12T21:25:16.451Z,99600.34
2023-04-12T21:27:43.634Z,99603.44
2023-04-12T21:30:14.105Z,99594.97
2023-04-12T21:32:41.473Z,99587.66
2023-04-12T21:35:08.620Z,99585.38
2023-04-12T21:37:38.854Z,99583.44
2023-04-12T21:40:10.092Z,99580.75
2023-04-12T21:42:37.091Z,99564.19
2023-04-12T21:45:04.450Z,99557.59
2023-04-12T21:47:31.970Z,99554.22
2023-04-12T21:49:59.062Z,99551.59
2023-04-12T21:52:26.721Z,99539.78
2023-04-12T21:54:54.262Z,99545.97
2023-04-12T21:57:20.862Z,99546.44
2023-04-12T21:59:47.362Z,99538.81
2023-04-12T22:02:14.252Z,99537.31
2023-04-12T22:04:41.410Z,99536.25
2023-04-12T22:07:34.739Z,99525.13
2023-04-12T22:10:00.027Z,99515.19
2023-04-12T22:12:26.990Z,99527.56
2023-04-12T22:14:53.469Z,99513.81
2023-04-12T22:17:21.512Z,99519.63
2023-04-12T22:19:48.748Z,99531.19
2023-04-12T22:22:16.081Z,99529.66
2023-04-12T22:24:44.091Z,99544.25
2023-04-12T22:27:10.859Z,99541.63
2023-04-12T22:29:37.754Z,99533.88
2023-04-12T22:32:04.557Z,99533.16
2023-04-12T22:34:32.365Z,99527.88
2023-04-12T22:37:02.915Z,99514.66
2023-04-12T22:39:30.549Z,99513.03
2023-04-12T22:41:57.652Z,99505.66
2023-04-12T22:44:25.281Z,99513.72
2023-04-12T22:46:54.628Z,99512.97
2023-04-12T22:49:27.995Z,99519.81
2023-04-12T22:51:55.130Z,99515.44
2023-04-12T22:54:23.576Z,99508.97
2023-04-12T22:56:50.820Z,99510.28
2023-04-12T22:59:19.882Z,99510.44
2023-04-12T23:01:47.031Z,99520.31
2023-04-12T23:04:15.744Z,99503.25
2023-04-12T23:06:43.650Z,99493.88
2023-04-12T23:09:11.435Z,99503.72
2023-04-12T23:11:39.852Z,99489.13
2023-04-12T23:14:07.811Z,99495.19
2023-04-12T23:16:35.702Z,99479.78
2023-04-12T23:19:04.109Z,99483.53
2023-04-12T23:21:30.867Z,99475.03
2023-04-12T23:23:57.895Z,99465.78
2023-04-12T23:26:24.723Z,99462.00
2023-04-12T23:28:51.717Z,99454.72
2023-04-12T23:31:18.655Z,99447.34
2023-04-12T23:33:55.212Z,99440.16
2023-04-12T23:36:21.986Z,99450.19
2023-04-12T23:38:48.583Z,99441.03
2023-04-12T23:41:31.752Z,99433.41
2023-04-12T23:43:59.130Z,99441.88
2023-04-12T23:46:26.056Z,99428.88
2023-04-12T23:48:52.860Z,99423.16
2023-04-12T23:51:19.444Z,99428.94
2023-04-12T23:53:46.391Z,99422.09
2023-04-12T23:56:13.121Z,99409.13
2023-04-12T23:58:39.536Z,99423.75
